Time;durP1;ratioP1;P1;durP2;ratioP2;P2;SDS_P1;SDS_P2;PMS_P1;PMS_P2;Temp;Humidity;BMP_temperature;BMP_pressure;BME280_temperature;BME280_humidity;BME280_pressure;Samples;Min_cycle;Max_cycle;Signal;HPM_P1;HPM_P2
2022/10/08 00:01:04;;;;;;;12.68;10.45;;;;;;;14.47;76.37;100573.85;2175662;80;29728;-68
2022/10/08 00:04:10;;;;;;;13.45;9.73;;;;;;;14.43;76.33;100562.41;2173966;81;27806;-68
2022/10/08 00:07:11;;;;;;;11.33;9.10;;;;;;;14.39;76.27;100557.69;2184477;80;28770;-68
2022/10/08 00:10:13;;;;;;;15.38;9.60;;;;;;;14.32;76.17;100550.05;2179865;80;32217;-68
2022/10/08 00:13:14;;;;;;;13.93;9.20;;;;;;;14.23;76.08;100546.12;2182600;80;33097;-68
2022/10/08 00:16:32;;;;;;;11.97;9.30;;;;;;;14.13;75.90;100546.66;2136054;82;29359;-68
2022/10/08 00:19:34;;;;;;;13.53;10.20;;;;;;;13.90;75.60;100541.31;2169713;80;27835;-68
2022/10/08 00:22:35;;;;;;;13.28;9.58;;;;;;;13.90;75.60;100541.31;2153745;80;29614;-67
2022/10/08 00:25:42;;;;;;;13.18;9.95;;;;;;;13.79;75.83;100533.88;2110172;82;31508;-68
2022/10/08 00:28:46;;;;;;;14.68;10.15;;;;;;;13.68;75.87;100531.81;2116724;83;33764;-68
2022/10/08 00:31:49;;;;;;;12.33;9.28;;;;;;;13.58;75.87;100533.32;2113623;83;30019;-68
2022/10/08 00:34:52;;;;;;;15.50;10.58;;;;;;;13.48;75.96;100533.48;2099983;83;27732;-67
2022/10/08 00:37:54;;;;;;;15.03;10.15;;;;;;;13.37;76.07;100530.88;2101827;84;28699;-70
2022/10/08 00:40:56;;;;;;;14.47;9.85;;;;;;;13.27;76.15;100528.34;2107452;83;32433;-68
2022/10/08 00:44:02;;;;;;;13.22;10.10;;;;;;;13.13;76.39;100525.58;2139776;80;33867;-68
2022/10/08 00:47:05;;;;;;;12.35;10.30;;;;;;;13.13;76.39;100525.58;2136644;81;30179;-68
2022/10/08 00:50:06;;;;;;;17.10;11.65;;;;;;;13.06;76.48;100523.22;2133428;80;27759;-68
2022/10/08 00:53:09;;;;;;;12.73;10.40;;;;;;;13.00;76.57;100518.17;2144024;82;27754;-68
2022/10/08 00:56:11;;;;;;;13.65;10.30;;;;;;;12.95;76.65;100507.30;2143210;82;31939;-69
2022/10/08 00:59:13;;;;;;;11.43;9.45;;;;;;;12.88;76.70;100504.97;2170158;81;33770;-69
2022/10/08 01:02:15;;;;;;;14.53;11.53;;;;;;;12.82;76.73;100501.27;2158502;82;29705;-68
2022/10/08 01:05:21;;;;;;;15.70;10.70;;;;;;;12.76;76.76;100497.56;2139363;82;27672;-68
2022/10/08 01:09:10;;;;;;;13.18;10.82;;;;;;;12.69;76.80;100494.36;2158524;82;29713;-68
2022/10/08 01:12:39;;;;;;;19.55;9.88;;;;;;;12.63;76.84;100496.52;2148297;82;31493;-67
2022/10/08 01:16:04;;;;;;;13.88;9.85;;;;;;;12.55;77.09;100489.77;2151201;81;33906;-67
2022/10/08 01:19:45;;;;;;;15.20;11.53;;;;;;;12.54;77.38;100493.40;2141067;82;29736;-68
2022/10/08 01:23:00;;;;;;;15.70;10.43;;;;;;;12.54;77.60;100485.34;2129155;81;27564;-67
2022/10/08 01:26:19;;;;;;;13.35;11.25;;;;;;;12.55;77.88;100480.81;2163988;81;29031;-67
2022/10/08 01:29:36;;;;;;;13.03;10.50;;;;;;;12.57;78.15;100487.86;2207184;80;31663;-67
2022/10/08 01:32:52;;;;;;;13.62;10.95;;;;;;;12.51;78.49;100449.22;2197014;80;33590;-67
2022/10/08 01:35:56;;;;;;;13.80;10.88;;;;;;;12.51;78.49;100449.22;2201149;80;29737;-67
2022/10/08 01:39:00;;;;;;;14.10;10.88;;;;;;;12.66;78.58;100469.48;2192898;80;36976;-68
2022/10/08 01:42:03;;;;;;;13.72;10.95;;;;;;;12.71;78.71;100472.78;2188232;80;28647;-67
2022/10/08 01:45:10;;;;;;;16.27;12.53;;;;;;;12.73;78.83;100463.67;2181321;80;31084;-67
2022/10/08 01:48:17;;;;;;;13.88;11.78;;;;;;;12.75;78.89;100455.05;2195302;80;33889;-67
2022/10/08 01:51:31;;;;;;;12.28;10.98;;;;;;;12.78;78.93;100458.03;2187942;80;30172;-67
2022/10/08 01:54:33;;;;;;;13.70;11.90;;;;;;;12.80;78.94;100460.65;2179610;80;27695;-67
2022/10/08 01:57:35;;;;;;;19.12;12.95;;;;;;;12.82;79.12;100458.75;2186757;80;28884;-67
2022/10/08 02:00:37;;;;;;;18.57;12.95;;;;;;;12.82;79.18;100458.25;2168961;80;31518;-67
2022/10/08 02:04:31;;;;;;;17.35;12.28;;;;;;;12.82;79.15;100455.56;2174865;80;34095;-67
2022/10/08 02:06:46;;;;;;;20.35;13.90;;;;;;;12.83;79.18;100449.70;2174938;80;29139;-67
2022/10/08 02:09:55;;;;;;;14.75;12.13;;;;;;;12.82;79.30;100452.02;2168924;81;27775;-67
2022/10/08 02:12:56;;;;;;;17.30;13.15;;;;;;;12.81;79.25;100447.59;2175968;81;28669;-67
2022/10/08 02:16:05;;;;;;;17.37;12.63;;;;;;;12.78;79.32;100438.36;2174850;81;31100;-67
2022/10/08 02:19:12;;;;;;;15.43;12.78;;;;;;;12.75;79.35;100429.51;2174600;81;33326;-68
2022/10/08 02:22:16;;;;;;;17.77;12.47;;;;;;;12.74;79.44;100432.30;2165221;81;29365;-67
2022/10/08 02:25:29;;;;;;;14.63;12.28;;;;;;;12.71;79.37;100429.28;2181722;81;27615;-66
2022/10/08 02:28:51;;;;;;;16.65;12.63;;;;;;;12.69;79.36;100427.64;2174713;81;28643;-67
2022/10/08 02:31:59;;;;;;;16.45;12.35;;;;;;;12.65;79.40;100433.68;2179283;81;31454;-68
2022/10/08 02:35:12;;;;;;;16.23;12.65;;;;;;;12.64;79.55;100431.95;2170403;81;33660;-69
2022/10/08 02:38:22;;;;;;;15.88;13.03;;;;;;;12.62;79.56;100436.53;2170620;81;30149;-66
2022/10/08 02:41:28;;;;;;;19.92;13.72;;;;;;;12.61;79.71;100438.83;2173245;81;28444;-65
2022/10/08 02:45:06;;;;;;;18.12;12.95;;;;;;;12.60;79.70;100442.47;2136869;81;28728;-67
2022/10/08 02:48:16;;;;;;;15.68;12.30;;;;;;;12.58;79.86;100439.84;2141950;81;31939;-69
2022/10/08 02:51:19;;;;;;;16.65;12.78;;;;;;;12.56;80.07;100439.09;2163869;81;35033;-67
2022/10/08 02:54:22;;;;;;;16.90;12.60;;;;;;;12.57;80.07;100437.27;2164244;80;30447;-67
2022/10/08 02:57:32;;;;;;;20.27;12.53;;;;;;;12.58;80.12;100443.03;2144178;81;27533;-67
2022/10/08 03:00:38;;;;;;;16.17;12.40;;;;;;;12.59;80.21;100438.05;2197713;80;29091;-67
2022/10/08 03:03:45;;;;;;;15.30;13.28;;;;;;;12.61;80.33;100443.72;2182425;80;31042;-67
2022/10/08 03:06:47;;;;;;;17.12;12.75;;;;;;;12.65;80.41;100442.20;2183200;80;35664;-67
2022/10/08 03:09:51;;;;;;;16.05;12.60;;;;;;;12.68;80.52;100438.86;2170056;80;29529;-67
2022/10/08 03:13:00;;;;;;;17.62;13.00;;;;;;;12.74;80.65;100449.77;2183830;80;27711;-67
2022/10/08 03:16:02;;;;;;;14.13;12.50;;;;;;;12.74;80.65;100449.77;2184115;80;28679;-67
2022/10/08 03:19:06;;;;;;;15.50;12.95;;;;;;;12.78;80.73;100449.96;2168692;81;31058;-67
2022/10/08 03:22:07;;;;;;;12.35;11.15;;;;;;;12.82;80.81;100445.30;2129995;82;33757;-67
2022/10/08 03:25:09;;;;;;;14.63;11.75;;;;;;;12.88;80.83;100444.47;2173159;81;29435;-67
2022/10/08 03:28:10;;;;;;;17.75;12.55;;;;;;;12.88;80.83;100444.47;2175574;81;27670;-68
2022/10/08 03:31:12;;;;;;;14.03;11.60;;;;;;;12.91;80.99;100440.23;2146890;81;28656;-67
2022/10/08 03:34:14;;;;;;;14.20;12.58;;;;;;;12.95;81.08;100435.58;2174971;81;31117;-67
2022/10/08 03:37:15;;;;;;;16.97;12.60;;;;;;;12.99;81.14;100437.11;2177928;81;33842;-67
2022/10/08 03:40:17;;;;;;;17.62;12.40;;;;;;;13.03;81.20;100428.41;2174603;81;29704;-68
2022/10/08 03:43:18;;;;;;;12.60;11.40;;;;;;;13.06;81.09;100434.95;2178191;80;28943;-68
2022/10/08 03:46:19;;;;;;;11.80;10.65;;;;;;;13.05;80.96;100428.70;2185697;80;28695;-67
2022/10/08 03:49:21;;;;;;;14.10;10.38;;;;;;;13.04;80.85;100426.96;2180146;81;32231;-67
2022/10/08 03:52:22;;;;;;;15.68;11.38;;;;;;;13.02;80.81;100420.80;2190534;80;33187;-67
2022/10/08 03:55:23;;;;;;;15.83;11.20;;;;;;;13.01;80.81;100422.25;2177816;80;30448;-67
2022/10/08 03:58:25;;;;;;;11.78;10.43;;;;;;;12.97;80.74;100416.19;2183586;81;27686;-67
2022/10/08 04:01:28;;;;;;;18.00;11.18;;;;;;;12.97;80.74;100416.19;2187042;80;28678;-67
2022/10/08 04:04:29;;;;;;;14.47;11.75;;;;;;;12.95;80.82;100404.65;2189867;80;32240;-67
2022/10/08 04:07:31;;;;;;;12.15;10.88;;;;;;;12.96;80.87;100406.38;2190196;80;33427;-67
2022/10/08 04:10:34;;;;;;;15.55;12.00;;;;;;;12.85;81.14;100393.55;2172868;81;30099;-67
2022/10/08 04:13:36;;;;;;;12.78;11.48;;;;;;;12.85;81.14;100393.55;2145511;80;27778;-67
2022/10/08 04:16:37;;;;;;;14.23;12.50;;;;;;;13.00;81.32;100415.98;2165647;81;28565;-67
2022/10/08 04:19:38;;;;;;;14.85;12.30;;;;;;;13.02;81.34;100417.26;2166680;81;31472;-67
2022/10/08 04:22:39;;;;;;;17.05;12.20;;;;;;;13.04;81.46;100422.08;2171052;81;34142;-68
2022/10/08 04:25:49;;;;;;;17.02;11.97;;;;;;;12.94;81.54;100394.84;2167863;81;29722;-67
2022/10/08 04:28:51;;;;;;;12.98;11.40;;;;;;;13.09;81.50;100423.14;2164048;81;27650;-67
2022/10/08 04:31:52;;;;;;;16.93;13.65;;;;;;;13.10;81.53;100417.66;2166249;81;29102;-67
2022/10/08 04:34:53;;;;;;;14.85;11.93;;;;;;;13.13;81.54;100425.56;2177476;81;32185;-69
2022/10/08 04:37:54;;;;;;;17.45;14.13;;;;;;;13.15;81.60;100421.45;2185143;80;33365;-67
2022/10/08 04:41:21;;;;;;;20.72;14.45;;;;;;;13.17;81.76;100421.73;2174206;81;30470;-67
2022/10/08 04:44:23;;;;;;;22.27;17.12;;;;;;;13.19;81.81;100418.48;2170674;81;27644;-67
2022/10/08 04:47:24;;;;;;;25.00;17.42;;;;;;;13.21;81.89;100416.58;2171582;81;29125;-67
2022/10/08 04:50:25;;;;;;;24.72;16.65;;;;;;;13.25;81.88;100421.75;2179173;81;31471;-66
2022/10/08 04:53:27;;;;;;;20.45;17.42;;;;;;;13.26;81.89;100425.72;2184316;81;34211;-68
2022/10/08 04:56:33;;;;;;;18.60;16.73;;;;;;;13.27;81.89;100419.38;2186062;80;29776;-67
2022/10/08 04:59:35;;;;;;;20.48;16.93;;;;;;;13.31;81.93;100429.01;2177898;81;27827;-67
2022/10/08 05:02:36;;;;;;;18.65;16.65;;;;;;;13.31;82.00;100418.70;2181730;81;28650;-67
2022/10/08 05:05:42;;;;;;;18.10;15.30;;;;;;;13.36;82.01;100426.04;2182875;81;31458;-67
2022/10/08 05:08:45;;;;;;;17.80;15.85;;;;;;;13.40;81.99;100417.30;2161820;81;33410;-66
2022/10/08 05:11:46;;;;;;;20.20;15.75;;;;;;;13.42;81.96;100423.00;2147769;82;29367;-67
2022/10/08 05:14:48;;;;;;;18.17;14.30;;;;;;;13.45;81.70;100424.66;2105854;83;27715;-66
2022/10/08 05:17:49;;;;;;;17.23;14.65;;;;;;;13.45;81.70;100424.66;2115623;83;29260;-67
2022/10/08 05:20:50;;;;;;;15.60;13.95;;;;;;;13.45;81.93;100426.86;2094000;83;31441;-67
2022/10/08 05:24:05;;;;;;;16.25;13.70;;;;;;;13.26;81.80;100389.86;2126702;82;33357;-67
2022/10/08 05:27:06;;;;;;;16.15;13.10;;;;;;;13.27;81.79;100384.86;2143865;81;30692;-67
2022/10/08 05:30:09;;;;;;;16.23;12.25;;;;;;;13.43;81.67;100419.84;2121763;82;27692;-67
2022/10/08 05:33:10;;;;;;;15.23;13.15;;;;;;;13.42;81.62;100424.84;2132560;82;28745;-67
2022/10/08 05:36:26;;;;;;;17.92;13.45;;;;;;;13.40;81.55;100425.37;2123758;82;31491;-67
2022/10/08 05:39:27;;;;;;;;;;;;;;;13.40;81.58;100420.91;2140855;82;33355;-67
2022/10/08 05:42:28;;;;;;;12.43;11.12;;;;;;;13.40;81.62;100423.59;2152325;80;33055;-67
2022/10/08 05:45:29;;;;;;;16.42;12.50;;;;;;;13.40;81.67;100436.13;2165871;81;27590;-66
2022/10/08 05:48:30;;;;;;;13.28;11.93;;;;;;;13.41;81.64;100428.48;2159044;82;29031;-66
2022/10/08 05:51:32;;;;;;;14.53;13.03;;;;;;;13.37;81.71;100426.43;2193143;80;31872;-67
2022/10/08 05:54:34;;;;;;;18.23;13.18;;;;;;;13.51;81.96;100436.38;2142676;81;33741;-66
2022/10/08 05:57:35;;;;;;;18.98;13.32;;;;;;;13.51;81.96;100436.38;2166053;81;29733;-67
2022/10/08 06:00:38;;;;;;;16.62;12.40;;;;;;;13.59;82.16;100438.61;2148200;82;27850;-66
2022/10/08 06:03:39;;;;;;;21.20;12.47;;;;;;;13.70;82.30;100441.55;2146144;81;28893;-66
2022/10/08 06:06:42;;;;;;;15.55;12.88;;;;;;;13.82;82.45;100434.52;2134997;82;31074;-67
2022/10/08 06:09:43;;;;;;;16.70;11.93;;;;;;;14.13;82.80;100434.85;2154873;81;33840;-67
2022/10/08 06:12:47;;;;;;;17.30;14.20;;;;;;;14.13;82.80;100434.85;2137617;81;30620;-66
2022/10/08 06:15:57;;;;;;;17.35;14.63;;;;;;;14.30;82.66;100437.46;2143447;82;27699;-67
2022/10/08 06:19:00;;;;;;;18.45;15.58;;;;;;;14.44;82.58;100434.75;2152519;81;28714;-67
2022/10/08 06:22:03;;;;;;;18.32;16.02;;;;;;;14.60;82.61;100434.62;2140600;82;32330;-67
2022/10/08 06:25:07;;;;;;;21.00;16.20;;;;;;;14.90;82.41;100436.31;2091225;83;32986;-67
2022/10/08 06:28:08;;;;;;;20.60;16.50;;;;;;;14.90;82.41;100436.31;2147798;80;29378;-67
2022/10/08 06:31:10;;;;;;;19.12;17.05;;;;;;;15.06;82.39;100438.02;2146043;81;27829;-67
2022/10/08 06:34:11;;;;;;;21.87;17.45;;;;;;;15.22;82.48;100438.73;2150473;81;28700;-67
2022/10/08 06:37:13;;;;;;;18.70;16.80;;;;;;;15.36;82.25;100436.93;2144686;81;31457;-67
2022/10/08 06:40:14;;;;;;;20.68;17.23;;;;;;;15.48;81.93;100434.74;2142787;81;33346;-67
2022/10/08 06:43:18;;;;;;;18.82;16.75;;;;;;;15.60;81.77;100437.09;2142033;81;29273;-68
2022/10/08 06:46:20;;;;;;;21.65;17.15;;;;;;;15.75;81.67;100440.08;2151322;80;27778;-67
2022/10/08 06:49:25;;;;;;;22.30;15.58;;;;;;;15.98;81.78;100439.48;2161437;80;29398;-68
2022/10/08 06:52:26;;;;;;;17.57;14.65;;;;;;;16.21;81.65;100438.73;2149374;81;32234;-66
2022/10/08 06:55:28;;;;;;;17.17;14.05;;;;;;;16.49;81.46;100439.44;2188368;80;33774;-68
2022/10/08 06:58:30;;;;;;;16.80;14.70;;;;;;;16.78;81.19;100430.17;2180708;80;29293;-67
2022/10/08 07:01:33;;;;;;;19.55;14.18;;;;;;;17.08;80.79;100423.48;2190785;80;27702;-68
2022/10/08 07:04:34;;;;;;;17.25;13.90;;;;;;;17.37;80.32;100420.41;2190666;80;28873;-68
2022/10/08 07:07:36;;;;;;;19.20;14.85;;;;;;;17.62;79.91;100422.08;2174175;80;31208;-69
2022/10/08 07:10:37;;;;;;;15.78;13.68;;;;;;;17.89;79.53;100427.20;2196559;80;33368;-68
2022/10/08 07:13:39;;;;;;;17.73;13.55;;;;;;;18.19;79.15;100429.84;2136970;81;29801;-67
2022/10/08 07:16:40;;;;;;;16.45;13.10;;;;;;;18.49;78.94;100424.80;2173507;80;27604;-67
2022/10/08 07:19:41;;;;;;;20.35;13.38;;;;;;;18.78;78.32;100419.67;2175748;80;29055;-67
2022/10/08 07:22:42;;;;;;;16.20;13.75;;;;;;;19.08;77.76;100414.09;2181390;80;30904;-67
2022/10/08 07:25:44;;;;;;;14.50;12.95;;;;;;;19.39;77.20;100413.33;2199188;80;33051;-67
2022/10/08 07:28:59;;;;;;;15.35;11.85;;;;;;;19.67;75.94;100413.19;2169435;80;29731;-67
2022/10/08 07:32:00;;;;;;;12.40;11.08;;;;;;;19.91;76.00;100407.14;2190802;79;27703;-67
2022/10/08 07:35:01;;;;;;;13.55;11.93;;;;;;;20.15;75.29;100415.00;2185302;79;29076;-67
2022/10/08 07:38:02;;;;;;;13.85;12.30;;;;;;;20.33;74.61;100424.76;2194460;80;31139;-67
2022/10/08 07:41:05;;;;;;;13.48;11.73;;;;;;;20.49;73.85;100422.39;2151024;80;33135;-67
2022/10/08 07:44:07;;;;;;;18.92;12.03;;;;;;;20.62;73.57;100423.48;2194476;79;29378;-67
2022/10/08 07:47:08;;;;;;;15.63;10.98;;;;;;;20.82;73.12;100426.29;2207780;79;27709;-67
2022/10/08 07:50:10;;;;;;;13.95;11.25;;;;;;;21.08;73.10;100432.08;2180856;79;29369;-67
2022/10/08 07:53:12;;;;;;;17.23;10.90;;;;;;;21.32;71.97;100428.09;2169832;80;31062;-67
2022/10/08 07:56:16;;;;;;;17.02;11.65;;;;;;;21.45;70.73;100426.41;2139122;82;33522;-68
2022/10/08 07:59:18;;;;;;;16.02;11.53;;;;;;;21.50;70.75;100419.19;2142908;81;32908;-67
2022/10/08 08:02:20;;;;;;;14.20;10.88;;;;;;;21.55;70.38;100416.39;2151499;80;27712;-68
2022/10/08 08:05:22;;;;;;;17.35;10.93;;;;;;;21.63;69.76;100415.69;2148089;80;28669;-68
2022/10/08 08:08:24;;;;;;;16.12;11.05;;;;;;;21.74;69.24;100417.41;2145725;80;31085;-67
2022/10/08 08:11:28;;;;;;;14.25;11.57;;;;;;;21.87;69.23;100408.03;2155643;81;33412;-68
2022/10/08 08:14:30;;;;;;;17.17;12.15;;;;;;;21.96;68.50;100408.50;2158461;80;29425;-67
2022/10/08 08:17:34;;;;;;;15.93;11.73;;;;;;;21.93;67.94;100412.39;2144280;80;27694;-68
2022/10/08 08:20:35;;;;;;;17.82;12.35;;;;;;;21.99;67.84;100417.27;2149174;80;28675;-68
2022/10/08 08:23:41;;;;;;;13.53;11.30;;;;;;;22.07;67.09;100412.44;2181678;80;32152;-66
2022/10/08 08:26:43;;;;;;;15.03;10.82;;;;;;;22.16;66.88;100416.14;2147296;81;33715;-67
2022/10/08 08:29:45;;;;;;;14.58;11.33;;;;;;;22.27;67.31;100417.31;2153335;81;29404;-66
2022/10/08 08:32:46;;;;;;;16.00;11.53;;;;;;;22.36;66.82;100414.19;2143670;81;27647;-68
2022/10/08 08:35:52;;;;;;;13.38;11.57;;;;;;;22.43;65.94;100410.37;2152181;81;29492;-67
2022/10/08 08:38:54;;;;;;;17.65;12.28;;;;;;;22.39;65.34;100410.28;2162990;81;32269;-68
2022/10/08 08:42:26;;;;;;;15.40;11.78;;;;;;;22.39;64.64;100409.80;2132931;82;33028;-69
2022/10/08 08:45:30;;;;;;;12.18;10.20;;;;;;;22.33;65.15;100415.00;2159103;81;29633;-68
2022/10/08 08:48:35;;;;;;;15.03;11.22;;;;;;;22.23;65.13;100403.60;2136657;82;28408;-67
2022/10/08 08:51:37;;;;;;;17.98;11.05;;;;;;;22.10;64.77;100409.39;2162046;81;28658;-68
2022/10/08 08:54:39;;;;;;;13.62;11.38;;;;;;;21.93;64.38;100411.52;2147595;81;31787;-67
2022/10/08 08:58:06;;;;;;;14.68;10.63;;;;;;;21.82;64.45;100411.21;2184119;80;34132;-67
2022/10/08 09:01:16;;;;;;;17.05;11.80;;;;;;;21.78;64.39;100419.32;2191157;80;30168;-67
2022/10/08 09:04:26;;;;;;;17.35;11.20;;;;;;;21.68;64.38;100420.18;2133098;81;27727;-66
2022/10/08 09:07:42;;;;;;;12.53;10.58;;;;;;;21.64;64.16;100416.05;2161212;80;28617;-68
2022/10/08 09:10:57;;;;;;;18.32;11.00;;;;;;;21.63;64.36;100418.42;2134888;80;32103;-68
2022/10/08 09:14:13;;;;;;;15.93;10.15;;;;;;;21.72;64.46;100416.69;2190654;80;34335;-68
2022/10/08 09:17:18;;;;;;;22.67;10.38;;;;;;;21.81;64.24;100419.87;2184510;80;29903;-67
2022/10/08 09:20:23;;;;;;;15.80;10.65;;;;;;;21.91;64.07;100410.83;2187801;80;27639;-67
2022/10/08 09:23:25;;;;;;;;;;;;;;;22.04;64.01;100411.85;2163049;80;29562;-67
2022/10/08 09:26:33;;;;;;;15.98;10.98;;;;;;;22.15;63.82;100416.63;2126519;83;31198;-67
2022/10/08 09:29:36;;;;;;;16.45;11.03;;;;;;;22.26;63.58;100422.90;2121048;83;33670;-66
2022/10/08 09:32:38;;;;;;;16.93;11.43;;;;;;;22.29;62.73;100419.87;2151881;81;30552;-68
2022/10/08 09:35:50;;;;;;;15.40;10.70;;;;;;;22.31;62.66;100426.92;2145753;81;28015;-67
2022/10/08 09:38:57;;;;;;;16.75;11.12;;;;;;;22.28;62.66;100427.22;2154978;81;29362;-66
2022/10/08 09:42:16;;;;;;;17.27;11.00;;;;;;;22.22;62.17;100434.63;2154630;81;30962;-65
2022/10/08 09:45:53;;;;;;;15.08;11.88;;;;;;;22.10;61.94;100437.19;2155817;81;33118;-65
2022/10/08 09:49:26;;;;;;;13.75;10.43;;;;;;;22.04;61.67;100432.31;2156399;80;30248;-68
2022/10/08 09:52:37;;;;;;;16.48;11.15;;;;;;;21.92;61.65;100438.47;2037475;85;27739;-65
2022/10/08 09:55:55;;;;;;;15.83;10.72;;;;;;;21.87;61.49;100442.12;2065187;84;53702;-67
2022/10/08 09:59:06;;;;;;;13.22;10.20;;;;;;;21.84;61.66;100433.23;2068195;84;31016;-66
2022/10/08 10:02:31;;;;;;;16.35;11.60;;;;;;;21.91;61.49;100432.14;2096345;83;27966;-66
2022/10/08 10:05:35;;;;;;;16.32;12.98;;;;;;;22.04;61.80;100435.04;2088647;84;29747;-66
2022/10/08 10:08:56;;;;;;;16.77;11.33;;;;;;;22.21;61.94;100437.00;2091011;84;27992;-66
2022/10/08 10:12:15;;;;;;;15.80;11.88;;;;;;;22.35;61.54;100437.52;2082715;84;29889;-66
2022/10/08 10:15:25;;;;;;;17.02;12.45;;;;;;;22.48;61.29;100435.37;2100880;83;31096;-67
2022/10/08 10:18:44;;;;;;;16.27;10.75;;;;;;;22.53;61.19;100435.75;2087696;84;34235;-66
2022/10/08 10:22:06;;;;;;;14.58;10.78;;;;;;;22.56;60.88;100434.61;2088227;84;29928;-66
2022/10/08 10:25:27;;;;;;;13.50;11.08;;;;;;;22.57;60.75;100437.17;2078925;82;28171;-67
2022/10/08 10:28:49;;;;;;;17.35;10.53;;;;;;;22.58;60.66;100421.67;2145260;81;29181;-67
2022/10/08 10:31:55;;;;;;;24.60;12.75;;;;;;;22.60;60.21;100417.77;2143023;81;31072;-67
2022/10/08 10:35:28;;;;;;;15.28;10.03;;;;;;;22.64;60.43;100416.95;2104434;83;34177;-66
2022/10/08 10:38:33;;;;;;;13.43;9.40;;;;;;;22.70;60.08;100417.71;2118781;82;29751;-66
2022/10/08 10:41:41;;;;;;;17.00;9.03;;;;;;;22.80;59.71;100410.83;2099630;83;27727;-66
2022/10/08 10:45:05;;;;;;;21.73;9.73;;;;;;;22.78;59.15;100407.88;2102598;83;29726;-67
2022/10/08 10:48:08;;;;;;;16.32;9.48;;;;;;;22.75;59.12;100406.33;2168517;81;32214;-66
2022/10/08 10:51:42;;;;;;;15.18;9.63;;;;;;;22.64;59.19;100413.37;2091665;83;33488;-66
2022/10/08 10:55:09;;;;;;;12.85;9.25;;;;;;;22.52;58.89;100405.36;2093997;83;29814;-65
2022/10/08 10:58:46;;;;;;;17.07;9.08;;;;;;;22.33;58.81;100413.64;2094648;83;27672;-66
2022/10/08 11:02:02;;;;;;;11.85;7.67;;;;;;;22.13;58.87;100412.34;2152258;82;29105;-66
2022/10/08 11:05:26;;;;;;;13.08;9.03;;;;;;;22.00;58.99;100409.45;2127407;82;31840;-65
2022/10/08 11:08:44;;;;;;;14.40;8.93;;;;;;;21.92;58.93;100403.01;2156976;81;33785;-66
2022/10/08 11:12:02;;;;;;;10.85;8.40;;;;;;;21.84;59.28;100399.14;2122681;82;30309;-66
2022/10/08 11:15:24;;;;;;;11.88;8.83;;;;;;;21.80;59.26;100396.86;2107140;83;27750;-67
2022/10/08 11:18:46;;;;;;;18.85;9.25;;;;;;;21.75;59.47;100395.94;2112917;84;29105;-65
2022/10/08 11:22:00;;;;;;;19.90;9.10;;;;;;;21.69;59.34;100386.98;2109688;82;32312;-66
2022/10/08 11:25:31;;;;;;;15.32;9.48;;;;;;;21.59;59.35;100402.47;2125637;82;33564;-65
2022/10/08 11:28:40;;;;;;;29.25;10.28;;;;;;;21.49;59.46;100397.03;2141622;82;29380;-65
2022/10/08 11:31:45;;;;;;;23.77;9.00;;;;;;;21.40;59.61;100396.03;2148922;82;27760;-66
2022/10/08 11:35:04;;;;;;;14.68;8.83;;;;;;;21.35;59.53;100397.80;2151571;82;29046;-67
2022/10/08 11:38:40;;;;;;;43.23;11.65;;;;;;;21.27;59.79;100397.67;2143375;82;31203;-66
2022/10/08 11:42:14;;;;;;;14.55;9.43;;;;;;;21.22;59.97;100388.58;2131050;82;33748;-66
2022/10/08 11:45:32;;;;;;;15.43;10.08;;;;;;;21.21;60.14;100390.06;2138644;81;29827;-66
2022/10/08 11:48:35;;;;;;;14.40;10.38;;;;;;;21.21;60.21;100384.61;2151888;82;28372;-66
2022/10/08 11:51:50;;;;;;;13.25;10.93;;;;;;;21.13;60.16;100388.05;2155185;81;28733;-65
2022/10/08 11:54:53;;;;;;;18.57;10.25;;;;;;;21.04;60.07;100382.96;2131851;81;31305;-66
2022/10/08 11:57:59;;;;;;;22.82;12.30;;;;;;;20.95;60.29;100386.55;2167519;81;34121;-65
2022/10/08 12:01:04;;;;;;;20.48;11.22;;;;;;;20.91;60.53;100385.11;2170402;81;29579;-66
2022/10/08 12:04:10;;;;;;;20.27;15.48;;;;;;;20.85;60.48;100385.69;2175287;81;28218;-66
2022/10/08 12:07:34;;;;;;;15.05;11.73;;;;;;;20.78;60.41;100390.33;2153267;81;28678;-65
2022/10/08 12:10:39;;;;;;;19.30;11.95;;;;;;;20.71;60.53;100382.31;2152457;81;31061;-66
2022/10/08 12:13:41;;;;;;;16.93;11.15;;;;;;;20.63;60.61;100390.33;2168059;81;34160;-66
2022/10/08 12:17:05;;;;;;;18.00;11.48;;;;;;;20.57;60.92;100380.87;2151987;81;29700;-66
2022/10/08 12:20:18;;;;;;;16.00;10.82;;;;;;;20.46;60.67;100384.55;2147633;82;27769;-66
2022/10/08 12:23:25;;;;;;;15.85;11.70;;;;;;;20.37;61.12;100378.56;2151919;81;29272;-68
2022/10/08 12:26:27;;;;;;;18.20;11.05;;;;;;;20.30;61.19;100380.98;2135503;82;30983;-67
2022/10/08 12:29:33;;;;;;;18.48;11.43;;;;;;;20.28;61.56;100369.89;2169171;80;33829;-67
2022/10/08 12:32:46;;;;;;;20.88;11.85;;;;;;;20.24;61.61;100376.59;2166906;81;30952;-66
2022/10/08 12:36:17;;;;;;;20.57;12.53;;;;;;;20.17;61.59;100380.36;2173014;80;27665;-66
2022/10/08 12:39:39;;;;;;;19.85;13.20;;;;;;;20.10;61.78;100380.56;2170638;81;29537;-68
2022/10/08 12:42:41;;;;;;;17.62;12.93;;;;;;;20.07;61.90;100386.27;2062532;85;31487;-68
2022/10/08 12:45:56;;;;;;;26.35;13.18;;;;;;;20.03;62.05;100382.45;2066159;84;33489;-68
2022/10/08 12:49:27;;;;;;;14.53;12.25;;;;;;;20.02;62.15;100386.17;2093279;83;29350;-68
2022/10/08 12:52:34;;;;;;;20.97;12.53;;;;;;;20.03;62.18;100383.81;2060290;85;27857;-62
2022/10/08 12:55:47;;;;;;;17.85;12.70;;;;;;;20.04;62.21;100379.22;2068342;85;29501;-62
2022/10/08 12:58:49;;;;;;;18.98;13.13;;;;;;;20.06;62.40;100377.75;2060872;85;32031;-62
2022/10/08 13:01:51;;;;;;;18.62;13.48;;;;;;;20.03;62.24;100380.22;2043660;85;33411;-63
2022/10/08 13:04:52;;;;;;;22.48;15.00;;;;;;;19.97;62.33;100372.11;2058469;85;29691;-62
2022/10/08 13:07:54;;;;;;;24.32;16.07;;;;;;;19.96;62.46;100390.78;2075265;85;27878;-63
2022/10/08 13:10:58;;;;;;;147.00;58.95;;;;;;;19.97;62.63;100389.78;2048737;84;29115;-63
2022/10/08 13:13:59;;;;;;;42.48;21.05;;;;;;;19.96;62.65;100388.57;2067925;85;31066;-62
2022/10/08 13:17:01;;;;;;;26.40;17.55;;;;;;;19.93;62.56;100392.91;2070392;84;33581;-62
2022/10/08 13:20:20;;;;;;;205.18;75.52;;;;;;;19.92;62.68;100385.27;2154813;80;29499;-61
2022/10/08 13:23:41;;;;;;;23.90;16.42;;;;;;;19.90;62.62;100389.98;2134532;82;27824;-61
2022/10/08 13:26:49;;;;;;;24.27;15.60;;;;;;;19.87;62.54;100393.81;2114246;83;28676;-62
2022/10/08 13:29:52;;;;;;;23.45;16.10;;;;;;;19.85;62.64;100398.99;2094781;83;32422;-61
2022/10/08 13:33:00;;;;;;;24.35;15.25;;;;;;;19.83;62.90;100401.86;2094367;83;33010;-61
2022/10/08 13:36:02;;;;;;;19.92;16.23;;;;;;;19.81;62.98;100398.89;2129129;82;30362;-61
2022/10/08 13:39:04;;;;;;;23.62;15.75;;;;;;;19.79;62.95;100396.32;2131569;80;27615;-61
2022/10/08 13:42:15;;;;;;;22.75;15.75;;;;;;;19.76;63.04;100404.73;2179378;79;28649;-63
2022/10/08 13:45:22;;;;;;;21.12;15.80;;;;;;;19.69;62.91;100403.05;2205480;79;31448;-61
2022/10/08 13:48:25;;;;;;;21.35;16.35;;;;;;;19.63;62.90;100410.88;2126138;83;33018;-63
2022/10/08 13:51:26;;;;;;;19.15;15.70;;;;;;;19.52;62.90;100404.52;2183048;79;29891;-63
2022/10/08 13:54:31;;;;;;;23.67;16.65;;;;;;;19.43;63.05;100395.78;2188067;79;28148;-64
2022/10/08 13:57:32;;;;;;;;;;;;;;;19.37;63.21;100409.88;2201766;79;28664;-62
2022/10/08 14:00:38;;;;;;;22.10;16.12;;;;;;;19.30;63.31;100401.39;2185984;79;31053;-63
2022/10/08 14:03:39;;;;;;;21.40;16.42;;;;;;;19.20;63.29;100393.67;2178704;79;33021;-64
2022/10/08 14:06:43;;;;;;;22.35;16.48;;;;;;;19.11;63.49;100396.16;2192472;79;29382;-64
2022/10/08 14:09:45;;;;;;;22.27;16.82;;;;;;;19.03;63.68;100401.39;2181701;79;27767;-61
2022/10/08 14:12:46;;;;;;;31.02;16.73;;;;;;;18.98;63.86;100400.42;2169582;79;29879;-63
2022/10/08 14:15:47;;;;;;;25.45;17.35;;;;;;;18.94;64.09;100412.52;2195477;79;31076;-63